sensor_id;sensor_type;location;lat;lon;timestamp;temperature;humidity
17200;DHT22;8716;52.268;20.968;2022-07-29T00:01:14;17.00;99.90
17200;DHT22;8716;52.268;20.968;2022-07-29T00:03:47;16.90;99.90
17200;DHT22;8716;52.268;20.968;2022-07-29T00:06:15;16.90;99.90
17200;DHT22;8716;52.268;20.968;2022-07-29T00:08:46;16.90;99.90
17200;DHT22;8716;52.268;20.968;2022-07-29T00:11:14;16.80;99.90
17200;DHT22;8716;52.268;20.968;2022-07-29T00:13:42;16.90;99.90
17200;DHT22;8716;52.268;20.968;2022-07-29T00:16:16;16.90;99.90
17200;DHT22;8716;52.268;20.968;2022-07-29T00:18:46;16.90;99.90
17200;DHT22;8716;52.268;20.968;2022-07-29T00:21:14;16.90;99.90
17200;DHT22;8716;52.268;20.968;2022-07-29T00:23:42;16.90;99.90
17200;DHT22;8716;52.268;20.968;2022-07-29T00:26:10;16.90;99.90
17200;DHT22;8716;52.268;20.968;2022-07-29T00:28:38;16.90;99.90
17200;DHT22;8716;52.268;20.968;2022-07-29T00:31:07;16.90;99.90
17200;DHT22;8716;52.268;20.968;2022-07-29T00:33:35;16.80;99.90
17200;DHT22;8716;52.268;20.968;2022-07-29T00:36:05;16.90;99.90
17200;DHT22;8716;52.268;20.968;2022-07-29T00:38:32;16.80;99.90
17200;DHT22;8716;52.268;20.968;2022-07-29T00:41:01;16.80;99.90
17200;DHT22;8716;52.268;20.968;2022-07-29T00:43:31;16.80;99.90
17200;DHT22;8716;52.268;20.968;2022-07-29T00:45:59;16.90;99.90
17200;DHT22;8716;52.268;20.968;2022-07-29T00:48:28;16.80;99.90
17200;DHT22;8716;52.268;20.968;2022-07-29T00:50:56;16.80;99.90
17200;DHT22;8716;52.268;20.968;2022-07-29T00:53:26;16.70;99.90
17200;DHT22;8716;52.268;20.968;2022-07-29T00:55:54;16.70;99.90
17200;DHT22;8716;52.268;20.968;2022-07-29T00:58:24;16.70;99.90
17200;DHT22;8716;52.268;20.968;2022-07-29T01:00:52;16.80;99.90
17200;DHT22;8716;52.268;20.968;2022-07-29T01:03:21;16.70;99.90
17200;DHT22;8716;52.268;20.968;2022-07-29T01:05:49;16.80;99.90
17200;DHT22;8716;52.268;20.968;2022-07-29T01:08:18;16.70;99.90
17200;DHT22;8716;52.268;20.968;2022-07-29T01:10:49;16.70;99.90
17200;DHT22;8716;52.268;20.968;2022-07-29T01:13:17;16.70;99.90
17200;DHT22;8716;52.268;20.968;2022-07-29T01:15:51;16.70;99.90
17200;DHT22;8716;52.268;20.968;2022-07-29T01:18:24;16.70;99.90
17200;DHT22;8716;52.268;20.968;2022-07-29T01:21:13;16.60;99.90
17200;DHT22;8716;52.268;20.968;2022-07-29T01:23:54;16.70;99.90
17200;DHT22;8716;52.268;20.968;2022-07-29T01:26:33;16.70;99.90
17200;DHT22;8716;52.268;20.968;2022-07-29T01:29:06;16.70;99.90
17200;DHT22;8716;52.268;20.968;2022-07-29T01:31:43;16.70;99.90
17200;DHT22;8716;52.268;20.968;2022-07-29T01:34:29;16.60;99.90
17200;DHT22;8716;52.268;20.968;2022-07-29T01:37:06;16.60;99.90
17200;DHT22;8716;52.268;20.968;2022-07-29T01:39:37;16.60;99.90
17200;DHT22;8716;52.268;20.968;2022-07-29T01:42:12;16.50;99.90
17200;DHT22;8716;52.268;20.968;2022-07-29T01:44:50;16.50;99.90
17200;DHT22;8716;52.268;20.968;2022-07-29T01:47:26;16.50;99.90
17200;DHT22;8716;52.268;20.968;2022-07-29T01:49:56;16.40;99.90
17200;DHT22;8716;52.268;20.968;2022-07-29T01:52:33;16.40;99.90
17200;DHT22;8716;52.268;20.968;2022-07-29T01:55:06;16.40;99.90
17200;DHT22;8716;52.268;20.968;2022-07-29T01:57:36;16.40;99.90
17200;DHT22;8716;52.268;20.968;2022-07-29T02:00:08;16.30;99.90
17200;DHT22;8716;52.268;20.968;2022-07-29T02:02:43;16.30;99.90
17200;DHT22;8716;52.268;20.968;2022-07-29T02:05:15;16.30;99.90
17200;DHT22;8716;52.268;20.968;2022-07-29T02:07:46;16.30;99.90
17200;DHT22;8716;52.268;20.968;2022-07-29T02:10:15;16.30;99.90
17200;DHT22;8716;52.268;20.968;2022-07-29T02:12:52;16.20;99.90
17200;DHT22;8716;52.268;20.968;2022-07-29T02:15:23;16.20;99.90
17200;DHT22;8716;52.268;20.968;2022-07-29T02:17:56;16.20;99.90
17200;DHT22;8716;52.268;20.968;2022-07-29T02:20:26;16.20;99.90
17200;DHT22;8716;52.268;20.968;2022-07-29T02:22:57;16.20;99.90
17200;DHT22;8716;52.268;20.968;2022-07-29T02:25:27;16.20;99.90
17200;DHT22;8716;52.268;20.968;2022-07-29T02:28:05;16.20;99.90
17200;DHT22;8716;52.268;20.968;2022-07-29T02:30:36;16.10;99.90
17200;DHT22;8716;52.268;20.968;2022-07-29T02:33:08;16.20;99.90
17200;DHT22;8716;52.268;20.968;2022-07-29T02:35:39;16.20;99.90
17200;DHT22;8716;52.268;20.968;2022-07-29T02:38:10;16.20;99.90
17200;DHT22;8716;52.268;20.968;2022-07-29T02:40:58;16.20;99.90
17200;DHT22;8716;52.268;20.968;2022-07-29T02:43:28;16.20;99.90
17200;DHT22;8716;52.268;20.968;2022-07-29T02:46:00;16.20;99.90
17200;DHT22;8716;52.268;20.968;2022-07-29T02:48:45;16.20;99.90
17200;DHT22;8716;52.268;20.968;2022-07-29T02:51:19;16.10;99.90
17200;DHT22;8716;52.268;20.968;2022-07-29T02:54:13;16.10;99.90
17200;DHT22;8716;52.268;20.968;2022-07-29T02:56:44;16.10;99.90
17200;DHT22;8716;52.268;20.968;2022-07-29T02:59:14;16.10;99.90
17200;DHT22;8716;52.268;20.968;2022-07-29T03:01:47;16.00;99.90
17200;DHT22;8716;52.268;20.968;2022-07-29T03:04:17;16.00;99.90
17200;DHT22;8716;52.268;20.968;2022-07-29T03:06:48;16.00;99.90
17200;DHT22;8716;52.268;20.968;2022-07-29T03:09:17;16.00;99.90
17200;DHT22;8716;52.268;20.968;2022-07-29T03:11:46;15.90;99.90
17200;DHT22;8716;52.268;20.968;2022-07-29T03:14:17;15.90;99.90
17200;DHT22;8716;52.268;20.968;2022-07-29T03:16:48;15.90;99.90
17200;DHT22;8716;52.268;20.968;2022-07-29T03:19:17;15.90;99.90
17200;DHT22;8716;52.268;20.968;2022-07-29T03:21:45;15.90;99.90
17200;DHT22;8716;52.268;20.968;2022-07-29T03:24:31;15.80;99.90
17200;DHT22;8716;52.268;20.968;2022-07-29T03:27:00;15.80;99.90
17200;DHT22;8716;52.268;20.968;2022-07-29T03:29:28;15.80;99.90
17200;DHT22;8716;52.268;20.968;2022-07-29T03:32:02;15.80;99.90
17200;DHT22;8716;52.268;20.968;2022-07-29T03:34:34;15.90;99.90
17200;DHT22;8716;52.268;20.968;2022-07-29T03:37:03;15.80;99.90
17200;DHT22;8716;52.268;20.968;2022-07-29T03:39:36;15.90;99.90
17200;DHT22;8716;52.268;20.968;2022-07-29T03:42:07;15.90;99.90
17200;DHT22;8716;52.268;20.968;2022-07-29T03:44:37;15.80;99.90
17200;DHT22;8716;52.268;20.968;2022-07-29T03:47:09;15.80;99.90
17200;DHT22;8716;52.268;20.968;2022-07-29T03:49:39;15.90;99.90
17200;DHT22;8716;52.268;20.968;2022-07-29T03:52:08;15.80;99.90
17200;DHT22;8716;52.268;20.968;2022-07-29T03:54:36;15.90;99.90
17200;DHT22;8716;52.268;20.968;2022-07-29T03:57:05;15.90;99.90
17200;DHT22;8716;52.268;20.968;2022-07-29T03:59:35;16.00;99.90
17200;DHT22;8716;52.268;20.968;2022-07-29T04:02:05;16.00;99.90
17200;DHT22;8716;52.268;20.968;2022-07-29T04:04:37;16.10;99.90
17200;DHT22;8716;52.268;20.968;2022-07-29T04:07:05;16.10;99.90
17200;DHT22;8716;52.268;20.968;2022-07-29T04:09:33;16.20;99.90
17200;DHT22;8716;52.268;20.968;2022-07-29T04:12:02;16.20;99.90
17200;DHT22;8716;52.268;20.968;2022-07-29T04:14:31;16.20;99.90
17200;DHT22;8716;52.268;20.968;2022-07-29T04:17:00;16.20;99.90
17200;DHT22;8716;52.268;20.968;2022-07-29T04:19:28;16.20;99.90
17200;DHT22;8716;52.268;20.968;2022-07-29T04:21:58;16.20;99.90
17200;DHT22;8716;52.268;20.968;2022-07-29T04:24:26;16.30;99.90
17200;DHT22;8716;52.268;20.968;2022-07-29T04:26:55;16.30;99.90
17200;DHT22;8716;52.268;20.968;2022-07-29T04:29:23;16.30;99.90
17200;DHT22;8716;52.268;20.968;2022-07-29T04:31:51;16.40;99.90
17200;DHT22;8716;52.268;20.968;2022-07-29T04:34:19;16.40;99.90
17200;DHT22;8716;52.268;20.968;2022-07-29T04:36:47;16.50;99.90
17200;DHT22;8716;52.268;20.968;2022-07-29T04:39:17;16.50;99.90
17200;DHT22;8716;52.268;20.968;2022-07-29T04:41:49;16.50;99.90
17200;DHT22;8716;52.268;20.968;2022-07-29T04:44:22;16.60;99.90
17200;DHT22;8716;52.268;20.968;2022-07-29T04:46:55;16.70;99.90
17200;DHT22;8716;52.268;20.968;2022-07-29T04:49:24;16.90;99.90
17200;DHT22;8716;52.268;20.968;2022-07-29T04:51:53;17.00;99.90
17200;DHT22;8716;52.268;20.968;2022-07-29T04:54:22;17.00;99.90
17200;DHT22;8716;52.268;20.968;2022-07-29T04:56:52;17.00;99.90
17200;DHT22;8716;52.268;20.968;2022-07-29T04:59:20;17.10;99.90
17200;DHT22;8716;52.268;20.968;2022-07-29T05:01:48;17.20;99.90
17200;DHT22;8716;52.268;20.968;2022-07-29T05:04:16;17.30;99.90
17200;DHT22;8716;52.268;20.968;2022-07-29T05:06:45;17.40;99.90
17200;DHT22;8716;52.268;20.968;2022-07-29T05:09:14;17.50;99.90
17200;DHT22;8716;52.268;20.968;2022-07-29T05:11:43;17.70;99.90
17200;DHT22;8716;52.268;20.968;2022-07-29T05:14:11;18.20;99.90
17200;DHT22;8716;52.268;20.968;2022-07-29T05:16:40;19.00;99.90
17200;DHT22;8716;52.268;20.968;2022-07-29T05:19:08;19.60;99.90
17200;DHT22;8716;52.268;20.968;2022-07-29T05:21:40;20.10;99.90
17200;DHT22;8716;52.268;20.968;2022-07-29T05:24:09;20.60;99.90
17200;DHT22;8716;52.268;20.968;2022-07-29T05:26:37;21.00;99.90
17200;DHT22;8716;52.268;20.968;2022-07-29T05:29:06;21.50;99.90
17200;DHT22;8716;52.268;20.968;2022-07-29T05:31:54;22.40;99.90
17200;DHT22;8716;52.268;20.968;2022-07-29T05:34:22;23.50;99.90
17200;DHT22;8716;52.268;20.968;2022-07-29T05:36:51;24.40;99.90
17200;DHT22;8716;52.268;20.968;2022-07-29T05:39:22;25.40;99.90
17200;DHT22;8716;52.268;20.968;2022-07-29T05:42:10;26.40;99.90
17200;DHT22;8716;52.268;20.968;2022-07-29T05:44:40;27.40;99.90
17200;DHT22;8716;52.268;20.968;2022-07-29T05:47:08;28.20;99.90
17200;DHT22;8716;52.268;20.968;2022-07-29T05:49:36;28.70;99.90
17200;DHT22;8716;52.268;20.968;2022-07-29T05:52:04;29.10;99.90
17200;DHT22;8716;52.268;20.968;2022-07-29T05:54:33;29.40;99.50
17200;DHT22;8716;52.268;20.968;2022-07-29T05:57:02;29.40;99.10
17200;DHT22;8716;52.268;20.968;2022-07-29T05:59:30;30.00;98.30
17200;DHT22;8716;52.268;20.968;2022-07-29T06:01:59;30.60;96.90
17200;DHT22;8716;52.268;20.968;2022-07-29T06:04:30;31.20;95.60
17200;DHT22;8716;52.268;20.968;2022-07-29T06:06:58;31.70;93.20
17200;DHT22;8716;52.268;20.968;2022-07-29T06:09:26;32.00;91.40
17200;DHT22;8716;52.268;20.968;2022-07-29T06:11:55;32.40;90.80
17200;DHT22;8716;52.268;20.968;2022-07-29T06:14:24;32.50;86.50
17200;DHT22;8716;52.268;20.968;2022-07-29T06:16:52;32.40;86.40
17200;DHT22;8716;52.268;20.968;2022-07-29T06:19:22;32.40;84.60
17200;DHT22;8716;52.268;20.968;2022-07-29T06:21:50;32.30;82.90
17200;DHT22;8716;52.268;20.968;2022-07-29T06:24:18;32.00;82.70
17200;DHT22;8716;52.268;20.968;2022-07-29T06:26:47;31.70;83.10
17200;DHT22;8716;52.268;20.968;2022-07-29T06:29:15;31.60;82.30
17200;DHT22;8716;52.268;20.968;2022-07-29T06:31:43;31.30;83.90
17200;DHT22;8716;52.268;20.968;2022-07-29T06:34:12;31.30;83.80
17200;DHT22;8716;52.268;20.968;2022-07-29T06:36:42;31.30;83.60
17200;DHT22;8716;52.268;20.968;2022-07-29T06:39:11;31.00;83.20
17200;DHT22;8716;52.268;20.968;2022-07-29T06:41:40;30.10;84.60
17200;DHT22;8716;52.268;20.968;2022-07-29T06:44:08;29.30;86.40
17200;DHT22;8716;52.268;20.968;2022-07-29T06:46:37;28.80;88.30
17200;DHT22;8716;52.268;20.968;2022-07-29T06:49:05;29.00;89.30
17200;DHT22;8716;52.268;20.968;2022-07-29T06:51:33;29.60;89.50
17200;DHT22;8716;52.268;20.968;2022-07-29T06:54:03;30.40;87.40
17200;DHT22;8716;52.268;20.968;2022-07-29T06:56:33;31.40;85.70
17200;DHT22;8716;52.268;20.968;2022-07-29T06:59:06;32.00;83.20
17200;DHT22;8716;52.268;20.968;2022-07-29T07:01:35;32.10;81.70
17200;DHT22;8716;52.268;20.968;2022-07-29T07:04:04;32.30;81.10
17200;DHT22;8716;52.268;20.968;2022-07-29T07:06:32;32.50;80.30
17200;DHT22;8716;52.268;20.968;2022-07-29T07:09:00;32.80;80.10
17200;DHT22;8716;52.268;20.968;2022-07-29T07:11:33;33.10;78.50
17200;DHT22;8716;52.268;20.968;2022-07-29T07:14:03;33.20;76.90
17200;DHT22;8716;52.268;20.968;2022-07-29T07:16:31;33.40;77.70
17200;DHT22;8716;52.268;20.968;2022-07-29T07:19:00;33.80;76.30
17200;DHT22;8716;52.268;20.968;2022-07-29T07:21:28;34.00;75.10
17200;DHT22;8716;52.268;20.968;2022-07-29T07:23:57;34.10;74.50
17200;DHT22;8716;52.268;20.968;2022-07-29T07:26:26;34.60;73.30
17200;DHT22;8716;52.268;20.968;2022-07-29T07:28:58;34.80;72.80
17200;DHT22;8716;52.268;20.968;2022-07-29T07:31:27;34.40;70.90
17200;DHT22;8716;52.268;20.968;2022-07-29T07:33:55;33.70;72.40
17200;DHT22;8716;52.268;20.968;2022-07-29T07:36:23;33.30;73.70
17200;DHT22;8716;52.268;20.968;2022-07-29T07:38:54;33.50;73.60
17200;DHT22;8716;52.268;20.968;2022-07-29T07:41:22;33.80;72.80
17200;DHT22;8716;52.268;20.968;2022-07-29T07:43:50;34.00;72.00
17200;DHT22;8716;52.268;20.968;2022-07-29T07:46:20;34.10;72.00
17200;DHT22;8716;52.268;20.968;2022-07-29T07:48:50;34.30;71.50
17200;DHT22;8716;52.268;20.968;2022-07-29T07:51:19;35.00;71.50
17200;DHT22;8716;52.268;20.968;2022-07-29T07:53:47;35.90;68.20
17200;DHT22;8716;52.268;20.968;2022-07-29T07:56:17;36.40;68.60
17200;DHT22;8716;52.268;20.968;2022-07-29T07:58:45;37.10;64.60
17200;DHT22;8716;52.268;20.968;2022-07-29T08:01:13;37.50;65.50
17200;DHT22;8716;52.268;20.968;2022-07-29T08:03:48;37.90;63.20
17200;DHT22;8716;52.268;20.968;2022-07-29T08:06:16;38.10;62.50
17200;DHT22;8716;52.268;20.968;2022-07-29T08:08:44;38.80;62.60
17200;DHT22;8716;52.268;20.968;2022-07-29T08:11:12;39.60;61.20
17200;DHT22;8716;52.268;20.968;2022-07-29T08:13:41;40.20;58.60
17200;DHT22;8716;52.268;20.968;2022-07-29T08:16:09;40.10;57.30
17200;DHT22;8716;52.268;20.968;2022-07-29T08:18:43;40.60;57.40
17200;DHT22;8716;52.268;20.968;2022-07-29T08:21:14;41.20;55.70
17200;DHT22;8716;52.268;20.968;2022-07-29T08:23:45;41.60;55.00
17200;DHT22;8716;52.268;20.968;2022-07-29T08:26:26;41.90;54.20
17200;DHT22;8716;52.268;20.968;2022-07-29T08:28:56;42.20;53.50
17200;DHT22;8716;52.268;20.968;2022-07-29T08:31:24;42.30;53.60
17200;DHT22;8716;52.268;20.968;2022-07-29T08:33:53;42.30;52.40
17200;DHT22;8716;52.268;20.968;2022-07-29T08:36:24;42.10;52.30
17200;DHT22;8716;52.268;20.968;2022-07-29T08:38:52;41.70;52.10
17200;DHT22;8716;52.268;20.968;2022-07-29T08:41:21;41.50;52.70
17200;DHT22;8716;52.268;20.968;2022-07-29T08:43:50;41.50;52.40
17200;DHT22;8716;52.268;20.968;2022-07-29T08:46:19;41.30;52.80
17200;DHT22;8716;52.268;20.968;2022-07-29T08:48:47;41.50;52.10
17200;DHT22;8716;52.268;20.968;2022-07-29T08:51:17;42.00;52.30
17200;DHT22;8716;52.268;20.968;2022-07-29T08:53:48;42.50;51.00
17200;DHT22;8716;52.268;20.968;2022-07-29T08:56:18;42.50;49.60
17200;DHT22;8716;52.268;20.968;2022-07-29T08:58:48;41.70;50.30
17200;DHT22;8716;52.268;20.968;2022-07-29T09:04:04;41.70;51.60
17200;DHT22;8716;52.268;20.968;2022-07-29T09:06:37;41.50;51.10
17200;DHT22;8716;52.268;20.968;2022-07-29T09:09:08;40.90;50.90
17200;DHT22;8716;52.268;20.968;2022-07-29T09:11:37;40.60;51.00
17200;DHT22;8716;52.268;20.968;2022-07-29T09:14:05;40.70;50.80
17200;DHT22;8716;52.268;20.968;2022-07-29T09:16:44;40.50;50.50
17200;DHT22;8716;52.268;20.968;2022-07-29T09:19:20;40.30;51.30
17200;DHT22;8716;52.268;20.968;2022-07-29T09:21:48;40.40;51.40
17200;DHT22;8716;52.268;20.968;2022-07-29T09:24:36;40.10;50.90
17200;DHT22;8716;52.268;20.968;2022-07-29T09:27:11;40.00;51.70
17200;DHT22;8716;52.268;20.968;2022-07-29T09:29:39;39.70;50.70
17200;DHT22;8716;52.268;20.968;2022-07-29T09:32:09;38.80;51.90
17200;DHT22;8716;52.268;20.968;2022-07-29T09:34:38;38.00;52.80
17200;DHT22;8716;52.268;20.968;2022-07-29T09:37:06;37.50;53.40
17200;DHT22;8716;52.268;20.968;2022-07-29T09:39:39;37.00;52.70
17200;DHT22;8716;52.268;20.968;2022-07-29T09:42:13;36.80;52.20
17200;DHT22;8716;52.268;20.968;2022-07-29T09:44:44;36.40;52.80
17200;DHT22;8716;52.268;20.968;2022-07-29T09:47:12;35.90;53.70
17200;DHT22;8716;52.268;20.968;2022-07-29T09:49:52;35.30;55.10
17200;DHT22;8716;52.268;20.968;2022-07-29T09:52:20;34.80;56.40
17200;DHT22;8716;52.268;20.968;2022-07-29T09:54:50;34.40;56.70
17200;DHT22;8716;52.268;20.968;2022-07-29T09:57:28;34.20;57.00
17200;DHT22;8716;52.268;20.968;2022-07-29T09:59:59;34.10;57.80
17200;DHT22;8716;52.268;20.968;2022-07-29T10:02:39;33.60;57.30
17200;DHT22;8716;52.268;20.968;2022-07-29T10:05:18;33.30;58.20
17200;DHT22;8716;52.268;20.968;2022-07-29T10:07:48;33.00;59.20
17200;DHT22;8716;52.268;20.968;2022-07-29T10:10:23;32.70;59.70
17200;DHT22;8716;52.268;20.968;2022-07-29T10:12:54;32.50;60.30
17200;DHT22;8716;52.268;20.968;2022-07-29T10:15:25;32.30;60.40
17200;DHT22;8716;52.268;20.968;2022-07-29T10:17:54;31.80;60.70
17200;DHT22;8716;52.268;20.968;2022-07-29T10:20:23;31.40;61.60
17200;DHT22;8716;52.268;20.968;2022-07-29T10:22:54;30.90;62.50
17200;DHT22;8716;52.268;20.968;2022-07-29T10:25:25;30.60;63.50
17200;DHT22;8716;52.268;20.968;2022-07-29T10:27:53;30.50;63.70
17200;DHT22;8716;52.268;20.968;2022-07-29T10:30:23;30.50;63.80
17200;DHT22;8716;52.268;20.968;2022-07-29T10:33:10;30.20;64.30
17200;DHT22;8716;52.268;20.968;2022-07-29T10:35:54;30.10;65.20
17200;DHT22;8716;52.268;20.968;2022-07-29T10:38:34;30.10;65.00
17200;DHT22;8716;52.268;20.968;2022-07-29T10:41:43;30.10;64.70
17200;DHT22;8716;52.268;20.968;2022-07-29T10:44:17;30.10;65.40
17200;DHT22;8716;52.268;20.968;2022-07-29T10:46:50;30.10;65.10
17200;DHT22;8716;52.268;20.968;2022-07-29T10:49:19;30.10;65.10
17200;DHT22;8716;52.268;20.968;2022-07-29T10:51:55;29.90;64.10
17200;DHT22;8716;52.268;20.968;2022-07-29T10:54:42;29.90;64.30
17200;DHT22;8716;52.268;20.968;2022-07-29T10:57:24;29.90;65.10
17200;DHT22;8716;52.268;20.968;2022-07-29T11:00:29;30.00;65.70
17200;DHT22;8716;52.268;20.968;2022-07-29T11:02:58;30.20;64.40
17200;DHT22;8716;52.268;20.968;2022-07-29T11:05:53;30.20;64.40
17200;DHT22;8716;52.268;20.968;2022-07-29T11:08:25;30.20;63.70
17200;DHT22;8716;52.268;20.968;2022-07-29T11:14:18;30.20;65.40
17200;DHT22;8716;52.268;20.968;2022-07-29T11:17:01;30.20;64.70
17200;DHT22;8716;52.268;20.968;2022-07-29T11:19:33;30.20;64.60
17200;DHT22;8716;52.268;20.968;2022-07-29T11:22:02;30.30;64.50
17200;DHT22;8716;52.268;20.968;2022-07-29T11:24:31;30.20;64.00
17200;DHT22;8716;52.268;20.968;2022-07-29T11:27:09;30.10;64.30
17200;DHT22;8716;52.268;20.968;2022-07-29T11:29:48;30.00;65.20
17200;DHT22;8716;52.268;20.968;2022-07-29T11:32:18;29.90;64.70
17200;DHT22;8716;52.268;20.968;2022-07-29T11:35:17;29.80;65.10
17200;DHT22;8716;52.268;20.968;2022-07-29T11:38:25;29.70;64.30
17200;DHT22;8716;52.268;20.968;2022-07-29T11:41:20;29.50;65.50
17200;DHT22;8716;52.268;20.968;2022-07-29T11:43:50;29.40;65.80
17200;DHT22;8716;52.268;20.968;2022-07-29T11:46:43;29.40;66.50
17200;DHT22;8716;52.268;20.968;2022-07-29T11:49:13;29.50;65.50
17200;DHT22;8716;52.268;20.968;2022-07-29T11:51:51;29.40;64.70
17200;DHT22;8716;52.268;20.968;2022-07-29T11:54:24;29.40;65.20
17200;DHT22;8716;52.268;20.968;2022-07-29T11:56:53;29.40;65.80
17200;DHT22;8716;52.268;20.968;2022-07-29T11:59:22;29.40;66.20
17200;DHT22;8716;52.268;20.968;2022-07-29T12:02:01;29.40;66.20
17200;DHT22;8716;52.268;20.968;2022-07-29T12:04:49;29.40;66.60
17200;DHT22;8716;52.268;20.968;2022-07-29T12:07:26;29.40;66.20
17200;DHT22;8716;52.268;20.968;2022-07-29T12:10:01;29.40;66.00
17200;DHT22;8716;52.268;20.968;2022-07-29T12:12:32;29.10;66.10
17200;DHT22;8716;52.268;20.968;2022-07-29T12:15:11;29.10;66.20
17200;DHT22;8716;52.268;20.968;2022-07-29T12:17:41;29.10;66.00
17200;DHT22;8716;52.268;20.968;2022-07-29T12:20:09;29.10;66.60
17200;DHT22;8716;52.268;20.968;2022-07-29T12:22:40;29.10;67.20
17200;DHT22;8716;52.268;20.968;2022-07-29T12:25:13;29.20;67.90
17200;DHT22;8716;52.268;20.968;2022-07-29T12:28:00;29.30;66.00
17200;DHT22;8716;52.268;20.968;2022-07-29T12:30:40;29.30;65.30
17200;DHT22;8716;52.268;20.968;2022-07-29T12:33:16;29.30;66.10
17200;DHT22;8716;52.268;20.968;2022-07-29T12:35:46;29.30;67.30
17200;DHT22;8716;52.268;20.968;2022-07-29T12:38:33;29.40;66.50
17200;DHT22;8716;52.268;20.968;2022-07-29T12:41:02;29.40;66.30
17200;DHT22;8716;52.268;20.968;2022-07-29T12:43:31;29.40;66.60
17200;DHT22;8716;52.268;20.968;2022-07-29T12:46:11;29.40;65.70
17200;DHT22;8716;52.268;20.968;2022-07-29T12:48:41;29.30;65.80
17200;DHT22;8716;52.268;20.968;2022-07-29T12:51:11;29.10;65.30
17200;DHT22;8716;52.268;20.968;2022-07-29T12:54:02;29.00;66.00
17200;DHT22;8716;52.268;20.968;2022-07-29T12:56:30;28.90;66.70
17200;DHT22;8716;52.268;20.968;2022-07-29T12:59:19;28.90;66.30
17200;DHT22;8716;52.268;20.968;2022-07-29T13:02:19;28.90;66.10
17200;DHT22;8716;52.268;20.968;2022-07-29T13:05:21;28.70;66.30
17200;DHT22;8716;52.268;20.968;2022-07-29T13:07:49;28.50;66.50
17200;DHT22;8716;52.268;20.968;2022-07-29T13:10:39;28.50;66.50
17200;DHT22;8716;52.268;20.968;2022-07-29T13:13:10;28.50;66.70
17200;DHT22;8716;52.268;20.968;2022-07-29T13:15:40;28.50;67.30
17200;DHT22;8716;52.268;20.968;2022-07-29T13:18:26;28.50;66.80
17200;DHT22;8716;52.268;20.968;2022-07-29T13:20:55;28.50;67.00
17200;DHT22;8716;52.268;20.968;2022-07-29T13:23:23;28.30;66.70
17200;DHT22;8716;52.268;20.968;2022-07-29T13:25:53;28.10;67.40
17200;DHT22;8716;52.268;20.968;2022-07-29T13:28:21;27.90;67.70
17200;DHT22;8716;52.268;20.968;2022-07-29T13:30:49;27.90;68.00
17200;DHT22;8716;52.268;20.968;2022-07-29T13:33:17;27.80;68.50
17200;DHT22;8716;52.268;20.968;2022-07-29T13:35:45;27.90;68.80
17200;DHT22;8716;52.268;20.968;2022-07-29T13:38:14;28.00;68.40
17200;DHT22;8716;52.268;20.968;2022-07-29T13:40:42;28.10;68.10
17200;DHT22;8716;52.268;20.968;2022-07-29T13:43:12;28.10;67.70
17200;DHT22;8716;52.268;20.968;2022-07-29T13:45:40;28.10;68.20
17200;DHT22;8716;52.268;20.968;2022-07-29T13:48:08;28.00;67.50
17200;DHT22;8716;52.268;20.968;2022-07-29T13:50:36;27.90;67.50
17200;DHT22;8716;52.268;20.968;2022-07-29T13:53:04;27.80;68.20
17200;DHT22;8716;52.268;20.968;2022-07-29T13:55:33;27.80;67.90
17200;DHT22;8716;52.268;20.968;2022-07-29T13:58:01;27.90;68.30
17200;DHT22;8716;52.268;20.968;2022-07-29T14:00:31;28.00;68.20
17200;DHT22;8716;52.268;20.968;2022-07-29T14:02:59;28.10;68.20
17200;DHT22;8716;52.268;20.968;2022-07-29T14:05:27;28.30;67.80
17200;DHT22;8716;52.268;20.968;2022-07-29T14:07:55;28.40;67.20
17200;DHT22;8716;52.268;20.968;2022-07-29T14:10:23;28.30;66.30
17200;DHT22;8716;52.268;20.968;2022-07-29T14:12:51;28.20;67.00
17200;DHT22;8716;52.268;20.968;2022-07-29T14:15:22;28.00;66.70
17200;DHT22;8716;52.268;20.968;2022-07-29T14:17:52;27.90;66.40
17200;DHT22;8716;52.268;20.968;2022-07-29T14:20:20;27.70;67.50
17200;DHT22;8716;52.268;20.968;2022-07-29T14:22:48;27.70;67.50
17200;DHT22;8716;52.268;20.968;2022-07-29T14:25:16;27.80;67.50
17200;DHT22;8716;52.268;20.968;2022-07-29T14:27:46;27.70;67.40
17200;DHT22;8716;52.268;20.968;2022-07-29T14:30:15;27.70;67.40
17200;DHT22;8716;52.268;20.968;2022-07-29T14:32:43;27.70;67.40
17200;DHT22;8716;52.268;20.968;2022-07-29T14:35:12;27.70;67.40
17200;DHT22;8716;52.268;20.968;2022-07-29T14:37:40;27.60;67.30
17200;DHT22;8716;52.268;20.968;2022-07-29T14:40:10;27.60;67.30
17200;DHT22;8716;52.268;20.968;2022-07-29T14:42:38;27.50;67.30
17200;DHT22;8716;52.268;20.968;2022-07-29T14:45:08;27.50;67.60
17200;DHT22;8716;52.268;20.968;2022-07-29T14:47:36;27.40;66.90
17200;DHT22;8716;52.268;20.968;2022-07-29T14:50:06;27.20;67.60
17200;DHT22;8716;52.268;20.968;2022-07-29T14:52:35;27.30;67.70
17200;DHT22;8716;52.268;20.968;2022-07-29T14:55:07;27.30;67.70
17200;DHT22;8716;52.268;20.968;2022-07-29T14:57:45;27.30;67.80
17200;DHT22;8716;52.268;20.968;2022-07-29T15:00:14;27.50;67.30
17200;DHT22;8716;52.268;20.968;2022-07-29T15:02:42;27.40;66.20
17200;DHT22;8716;52.268;20.968;2022-07-29T15:05:27;27.40;66.80
17200;DHT22;8716;52.268;20.968;2022-07-29T15:07:58;27.40;66.50
17200;DHT22;8716;52.268;20.968;2022-07-29T15:10:26;27.30;66.80
17200;DHT22;8716;52.268;20.968;2022-07-29T15:12:55;27.30;67.20
17200;DHT22;8716;52.268;20.968;2022-07-29T15:15:24;27.30;67.80
17200;DHT22;8716;52.268;20.968;2022-07-29T15:17:52;27.30;67.30
17200;DHT22;8716;52.268;20.968;2022-07-29T15:20:20;27.20;67.00
17200;DHT22;8716;52.268;20.968;2022-07-29T15:22:52;27.20;67.00
17200;DHT22;8716;52.268;20.968;2022-07-29T15:25:23;27.20;67.30
17200;DHT22;8716;52.268;20.968;2022-07-29T15:27:54;27.20;67.10
17200;DHT22;8716;52.268;20.968;2022-07-29T15:30:28;27.10;67.10
17200;DHT22;8716;52.268;20.968;2022-07-29T15:33:00;27.00;67.20
17200;DHT22;8716;52.268;20.968;2022-07-29T15:35:28;26.90;67.30
17200;DHT22;8716;52.268;20.968;2022-07-29T15:37:57;26.90;67.60
17200;DHT22;8716;52.268;20.968;2022-07-29T15:40:26;27.00;67.80
17200;DHT22;8716;52.268;20.968;2022-07-29T15:42:54;26.90;67.20
17200;DHT22;8716;52.268;20.968;2022-07-29T15:45:22;26.90;67.70
17200;DHT22;8716;52.268;20.968;2022-07-29T15:47:50;26.90;67.80
17200;DHT22;8716;52.268;20.968;2022-07-29T15:50:19;26.80;67.80
17200;DHT22;8716;52.268;20.968;2022-07-29T15:52:47;26.80;67.80
17200;DHT22;8716;52.268;20.968;2022-07-29T15:55:15;26.70;68.00
17200;DHT22;8716;52.268;20.968;2022-07-29T15:57:44;26.70;68.20
17200;DHT22;8716;52.268;20.968;2022-07-29T16:00:13;26.70;68.20
17200;DHT22;8716;52.268;20.968;2022-07-29T16:02:43;26.70;68.10
17200;DHT22;8716;52.268;20.968;2022-07-29T16:05:13;26.70;68.10